sensor_id;sensor_type;location;lat;lon;timestamp;temperature;humidity
336;DHT22;156;48.738;9.228;2024-03-02T00:00:49;6.20;1.00
336;DHT22;156;48.738;9.228;2024-03-02T00:03:17;6.20;1.00
336;DHT22;156;48.738;9.228;2024-03-02T00:05:49;6.20;1.00
336;DHT22;156;48.738;9.228;2024-03-02T00:08:22;6.20;1.00
336;DHT22;156;48.738;9.228;2024-03-02T00:10:49;6.20;1.00
336;DHT22;156;48.738;9.228;2024-03-02T00:13:20;6.10;1.00
336;DHT22;156;48.738;9.228;2024-03-02T00:15:51;6.10;1.00
336;DHT22;156;48.738;9.228;2024-03-02T00:18:23;6.00;1.00
336;DHT22;156;48.738;9.228;2024-03-02T00:20:53;6.00;98.10
336;DHT22;156;48.738;9.228;2024-03-02T00:23:21;5.90;99.90
336;DHT22;156;48.738;9.228;2024-03-02T00:25:49;5.90;99.90
336;DHT22;156;48.738;9.228;2024-03-02T00:28:20;5.90;99.90
336;DHT22;156;48.738;9.228;2024-03-02T00:30:58;5.80;99.90
336;DHT22;156;48.738;9.228;2024-03-02T00:33:30;5.80;99.90
336;DHT22;156;48.738;9.228;2024-03-02T00:35:57;5.80;99.90
336;DHT22;156;48.738;9.228;2024-03-02T00:38:25;5.90;99.90
336;DHT22;156;48.738;9.228;2024-03-02T00:40:53;5.90;99.90
336;DHT22;156;48.738;9.228;2024-03-02T00:43:42;5.90;99.90
336;DHT22;156;48.738;9.228;2024-03-02T00:46:11;5.90;99.90
336;DHT22;156;48.738;9.228;2024-03-02T00:48:40;5.90;99.90
336;DHT22;156;48.738;9.228;2024-03-02T00:51:12;5.80;99.90
336;DHT22;156;48.738;9.228;2024-03-02T00:53:39;5.80;99.90
336;DHT22;156;48.738;9.228;2024-03-02T00:56:09;5.80;99.90
336;DHT22;156;48.738;9.228;2024-03-02T00:58:37;5.90;99.90
336;DHT22;156;48.738;9.228;2024-03-02T01:01:04;5.90;97.50
336;DHT22;156;48.738;9.228;2024-03-02T01:03:31;6.00;16.10
336;DHT22;156;48.738;9.228;2024-03-02T01:06:00;6.00;1.00
336;DHT22;156;48.738;9.228;2024-03-02T01:08:27;6.00;1.00
336;DHT22;156;48.738;9.228;2024-03-02T01:10:54;6.10;1.00
336;DHT22;156;48.738;9.228;2024-03-02T01:13:22;6.10;1.00
336;DHT22;156;48.738;9.228;2024-03-02T01:15:49;6.10;1.00
336;DHT22;156;48.738;9.228;2024-03-02T01:18:16;6.10;1.00
336;DHT22;156;48.738;9.228;2024-03-02T01:20:43;6.10;1.00
336;DHT22;156;48.738;9.228;2024-03-02T01:23:12;6.10;1.00
336;DHT22;156;48.738;9.228;2024-03-02T01:25:39;6.10;1.00
336;DHT22;156;48.738;9.228;2024-03-02T01:28:06;6.10;1.00
336;DHT22;156;48.738;9.228;2024-03-02T01:30:33;6.10;1.00
336;DHT22;156;48.738;9.228;2024-03-02T01:33:00;6.10;1.00
336;DHT22;156;48.738;9.228;2024-03-02T01:35:27;6.10;1.00
336;DHT22;156;48.738;9.228;2024-03-02T01:37:54;6.10;1.00
336;DHT22;156;48.738;9.228;2024-03-02T01:40:23;6.00;1.00
336;DHT22;156;48.738;9.228;2024-03-02T01:42:52;6.00;1.00
336;DHT22;156;48.738;9.228;2024-03-02T01:45:19;6.10;1.00
336;DHT22;156;48.738;9.228;2024-03-02T01:47:47;6.00;1.00
336;DHT22;156;48.738;9.228;2024-03-02T01:50:14;6.00;1.00
336;DHT22;156;48.738;9.228;2024-03-02T01:52:41;6.00;1.00
336;DHT22;156;48.738;9.228;2024-03-02T01:55:09;5.90;1.00
336;DHT22;156;48.738;9.228;2024-03-02T01:57:38;5.90;1.00
336;DHT22;156;48.738;9.228;2024-03-02T02:00:06;5.80;1.00
336;DHT22;156;48.738;9.228;2024-03-02T02:02:35;5.80;1.00
336;DHT22;156;48.738;9.228;2024-03-02T02:05:02;5.80;1.00
336;DHT22;156;48.738;9.228;2024-03-02T02:07:30;5.80;1.00
336;DHT22;156;48.738;9.228;2024-03-02T02:09:57;5.80;1.00
336;DHT22;156;48.738;9.228;2024-03-02T02:12:24;5.80;1.00
336;DHT22;156;48.738;9.228;2024-03-02T02:14:52;5.80;1.00
336;DHT22;156;48.738;9.228;2024-03-02T02:17:19;5.80;1.00
336;DHT22;156;48.738;9.228;2024-03-02T02:19:46;5.80;1.00
336;DHT22;156;48.738;9.228;2024-03-02T02:22:14;5.80;1.00
336;DHT22;156;48.738;9.228;2024-03-02T02:24:42;5.80;1.00
336;DHT22;156;48.738;9.228;2024-03-02T02:27:09;5.70;1.00
336;DHT22;156;48.738;9.228;2024-03-02T02:29:36;5.80;1.00
336;DHT22;156;48.738;9.228;2024-03-02T02:32:03;5.80;1.00
336;DHT22;156;48.738;9.228;2024-03-02T02:34:30;5.80;1.00
336;DHT22;156;48.738;9.228;2024-03-02T02:36:57;5.70;1.00
336;DHT22;156;48.738;9.228;2024-03-02T02:39:25;5.70;1.00
336;DHT22;156;48.738;9.228;2024-03-02T02:41:52;5.60;1.00
336;DHT22;156;48.738;9.228;2024-03-02T02:44:19;5.60;46.90
336;DHT22;156;48.738;9.228;2024-03-02T02:46:46;5.50;93.70
336;DHT22;156;48.738;9.228;2024-03-02T02:49:13;5.50;99.90
336;DHT22;156;48.738;9.228;2024-03-02T02:51:40;5.50;99.90
336;DHT22;156;48.738;9.228;2024-03-02T02:54:07;5.50;99.90
336;DHT22;156;48.738;9.228;2024-03-02T02:56:35;5.40;99.90
336;DHT22;156;48.738;9.228;2024-03-02T02:59:02;5.40;99.90
336;DHT22;156;48.738;9.228;2024-03-02T03:01:29;5.30;99.90
336;DHT22;156;48.738;9.228;2024-03-02T03:03:56;5.30;99.90
336;DHT22;156;48.738;9.228;2024-03-02T03:06:23;5.30;99.90
336;DHT22;156;48.738;9.228;2024-03-02T03:08:49;5.30;99.90
336;DHT22;156;48.738;9.228;2024-03-02T03:11:15;5.30;99.90
336;DHT22;156;48.738;9.228;2024-03-02T03:13:44;5.20;1.00
336;DHT22;156;48.738;9.228;2024-03-02T03:16:11;5.20;1.00
336;DHT22;156;48.738;9.228;2024-03-02T03:18:38;5.20;1.00
336;DHT22;156;48.738;9.228;2024-03-02T03:21:06;5.20;1.00
336;DHT22;156;48.738;9.228;2024-03-02T03:23:33;5.20;1.00
336;DHT22;156;48.738;9.228;2024-03-02T03:26:00;5.10;1.00
336;DHT22;156;48.738;9.228;2024-03-02T03:28:27;5.10;1.00
336;DHT22;156;48.738;9.228;2024-03-02T03:30:55;5.10;1.00
336;DHT22;156;48.738;9.228;2024-03-02T03:33:22;5.10;1.00
336;DHT22;156;48.738;9.228;2024-03-02T03:35:49;5.10;1.00
336;DHT22;156;48.738;9.228;2024-03-02T03:38:16;5.00;1.00
336;DHT22;156;48.738;9.228;2024-03-02T03:40:43;5.00;1.00
336;DHT22;156;48.738;9.228;2024-03-02T03:43:10;5.00;1.00
336;DHT22;156;48.738;9.228;2024-03-02T03:45:37;5.00;1.00
336;DHT22;156;48.738;9.228;2024-03-02T03:48:06;4.90;1.00
336;DHT22;156;48.738;9.228;2024-03-02T03:50:33;4.90;1.00
336;DHT22;156;48.738;9.228;2024-03-02T03:53:00;4.90;1.00
336;DHT22;156;48.738;9.228;2024-03-02T03:55:26;4.90;1.00
336;DHT22;156;48.738;9.228;2024-03-02T03:57:53;4.90;29.20
336;DHT22;156;48.738;9.228;2024-03-02T04:00:20;5.00;21.80
336;DHT22;156;48.738;9.228;2024-03-02T04:02:47;4.90;44.30
336;DHT22;156;48.738;9.228;2024-03-02T04:05:15;4.90;46.20
336;DHT22;156;48.738;9.228;2024-03-02T04:07:42;5.00;90.50
336;DHT22;156;48.738;9.228;2024-03-02T04:10:10;5.00;91.20
336;DHT22;156;48.738;9.228;2024-03-02T04:12:38;5.00;92.20
336;DHT22;156;48.738;9.228;2024-03-02T04:15:05;5.00;93.90
336;DHT22;156;48.738;9.228;2024-03-02T04:17:33;4.90;54.30
336;DHT22;156;48.738;9.228;2024-03-02T04:20:01;4.90;65.00
336;DHT22;156;48.738;9.228;2024-03-02T04:22:33;4.90;99.90
336;DHT22;156;48.738;9.228;2024-03-02T04:25:01;4.90;99.90
336;DHT22;156;48.738;9.228;2024-03-02T04:27:30;4.90;99.90
336;DHT22;156;48.738;9.228;2024-03-02T04:29:57;4.90;99.90
336;DHT22;156;48.738;9.228;2024-03-02T04:32:26;4.90;99.90
336;DHT22;156;48.738;9.228;2024-03-02T04:34:53;4.90;99.90
336;DHT22;156;48.738;9.228;2024-03-02T04:37:20;4.90;99.90
336;DHT22;156;48.738;9.228;2024-03-02T04:39:48;4.80;99.90
336;DHT22;156;48.738;9.228;2024-03-02T04:42:15;4.80;99.90
336;DHT22;156;48.738;9.228;2024-03-02T04:44:42;4.80;99.90
336;DHT22;156;48.738;9.228;2024-03-02T04:47:09;4.80;99.90
336;DHT22;156;48.738;9.228;2024-03-02T04:49:36;4.80;99.90
336;DHT22;156;48.738;9.228;2024-03-02T04:52:04;4.80;99.90
336;DHT22;156;48.738;9.228;2024-03-02T04:54:31;4.80;99.90
336;DHT22;156;48.738;9.228;2024-03-02T04:56:59;4.80;99.90
336;DHT22;156;48.738;9.228;2024-03-02T04:59:25;4.80;99.90
336;DHT22;156;48.738;9.228;2024-03-02T05:01:52;4.80;99.90
336;DHT22;156;48.738;9.228;2024-03-02T05:04:18;4.70;99.90
336;DHT22;156;48.738;9.228;2024-03-02T05:06:46;4.70;99.90
336;DHT22;156;48.738;9.228;2024-03-02T05:09:18;4.70;94.00
336;DHT22;156;48.738;9.228;2024-03-02T05:11:44;4.70;63.20
336;DHT22;156;48.738;9.228;2024-03-02T05:14:38;4.70;44.20
336;DHT22;156;48.738;9.228;2024-03-02T05:17:05;4.60;45.00
336;DHT22;156;48.738;9.228;2024-03-02T05:19:32;4.60;81.90
336;DHT22;156;48.738;9.228;2024-03-02T05:21:59;4.50;84.30
336;DHT22;156;48.738;9.228;2024-03-02T05:24:26;4.50;99.90
336;DHT22;156;48.738;9.228;2024-03-02T05:26:54;4.50;99.90
336;DHT22;156;48.738;9.228;2024-03-02T05:29:21;4.50;99.90
336;DHT22;156;48.738;9.228;2024-03-02T05:31:49;4.50;99.90
336;DHT22;156;48.738;9.228;2024-03-02T05:34:16;4.40;99.90
336;DHT22;156;48.738;9.228;2024-03-02T05:36:44;4.40;99.90
336;DHT22;156;48.738;9.228;2024-03-02T05:39:11;4.40;99.90
336;DHT22;156;48.738;9.228;2024-03-02T05:41:38;4.30;99.90
336;DHT22;156;48.738;9.228;2024-03-02T05:44:04;4.30;99.90
336;DHT22;156;48.738;9.228;2024-03-02T05:46:32;4.20;99.90
336;DHT22;156;48.738;9.228;2024-03-02T05:49:00;4.20;99.90
336;DHT22;156;48.738;9.228;2024-03-02T05:51:27;4.20;99.90
336;DHT22;156;48.738;9.228;2024-03-02T05:53:54;4.10;99.90
336;DHT22;156;48.738;9.228;2024-03-02T05:56:21;4.10;99.90
336;DHT22;156;48.738;9.228;2024-03-02T05:58:48;4.10;99.90
336;DHT22;156;48.738;9.228;2024-03-02T06:01:26;4.10;99.90
336;DHT22;156;48.738;9.228;2024-03-02T06:03:55;4.10;1.00
336;DHT22;156;48.738;9.228;2024-03-02T06:06:23;4.10;1.00
336;DHT22;156;48.738;9.228;2024-03-02T06:08:50;4.10;1.00
336;DHT22;156;48.738;9.228;2024-03-02T06:11:19;4.10;1.00
336;DHT22;156;48.738;9.228;2024-03-02T06:13:46;4.10;1.00
336;DHT22;156;48.738;9.228;2024-03-02T06:16:12;4.00;1.00
336;DHT22;156;48.738;9.228;2024-03-02T06:18:39;3.90;1.00
336;DHT22;156;48.738;9.228;2024-03-02T06:21:06;3.90;1.00
336;DHT22;156;48.738;9.228;2024-03-02T06:23:35;4.00;1.00
336;DHT22;156;48.738;9.228;2024-03-02T06:26:02;4.00;1.00
336;DHT22;156;48.738;9.228;2024-03-02T06:28:29;4.10;1.00
336;DHT22;156;48.738;9.228;2024-03-02T06:30:56;4.20;1.00
336;DHT22;156;48.738;9.228;2024-03-02T06:33:23;4.30;1.00
336;DHT22;156;48.738;9.228;2024-03-02T06:35:50;4.40;99.90
336;DHT22;156;48.738;9.228;2024-03-02T06:38:17;4.40;99.90
336;DHT22;156;48.738;9.228;2024-03-02T06:40:45;4.50;99.90
336;DHT22;156;48.738;9.228;2024-03-02T06:43:12;4.60;14.50
336;DHT22;156;48.738;9.228;2024-03-02T06:45:39;4.70;1.00
336;DHT22;156;48.738;9.228;2024-03-02T06:48:06;4.70;1.00
336;DHT22;156;48.738;9.228;2024-03-02T06:50:33;4.60;1.00
336;DHT22;156;48.738;9.228;2024-03-02T06:53:00;4.50;1.00
336;DHT22;156;48.738;9.228;2024-03-02T06:55:29;4.50;1.00
336;DHT22;156;48.738;9.228;2024-03-02T06:57:58;4.60;1.00
336;DHT22;156;48.738;9.228;2024-03-02T07:00:25;4.70;1.00
336;DHT22;156;48.738;9.228;2024-03-02T07:02:51;4.70;1.00
336;DHT22;156;48.738;9.228;2024-03-02T07:05:18;4.70;1.00
336;DHT22;156;48.738;9.228;2024-03-02T07:07:46;4.80;1.00
336;DHT22;156;48.738;9.228;2024-03-02T07:10:13;4.80;1.00
336;DHT22;156;48.738;9.228;2024-03-02T07:12:40;4.90;99.90
336;DHT22;156;48.738;9.228;2024-03-02T07:15:09;4.90;99.90
336;DHT22;156;48.738;9.228;2024-03-02T07:18:02;5.00;99.90
336;DHT22;156;48.738;9.228;2024-03-02T07:20:29;5.20;99.90
336;DHT22;156;48.738;9.228;2024-03-02T07:22:56;5.20;1.00
336;DHT22;156;48.738;9.228;2024-03-02T07:25:23;5.30;1.00
336;DHT22;156;48.738;9.228;2024-03-02T07:27:50;5.40;1.00
336;DHT22;156;48.738;9.228;2024-03-02T07:30:19;5.40;1.00
336;DHT22;156;48.738;9.228;2024-03-02T07:32:49;5.50;1.00
336;DHT22;156;48.738;9.228;2024-03-02T07:35:19;5.60;1.00
336;DHT22;156;48.738;9.228;2024-03-02T07:37:47;5.70;99.90
336;DHT22;156;48.738;9.228;2024-03-02T07:40:14;5.80;99.90
336;DHT22;156;48.738;9.228;2024-03-02T07:42:41;5.90;99.90
336;DHT22;156;48.738;9.228;2024-03-02T07:45:08;6.00;99.90
336;DHT22;156;48.738;9.228;2024-03-02T07:47:37;6.00;99.90
336;DHT22;156;48.738;9.228;2024-03-02T07:50:04;6.00;29.90
336;DHT22;156;48.738;9.228;2024-03-02T07:52:32;6.10;1.00
336;DHT22;156;48.738;9.228;2024-03-02T07:54:59;6.10;1.00
336;DHT22;156;48.738;9.228;2024-03-02T07:57:27;6.10;1.00
336;DHT22;156;48.738;9.228;2024-03-02T07:59:54;6.10;1.00
336;DHT22;156;48.738;9.228;2024-03-02T08:02:21;6.10;1.00
336;DHT22;156;48.738;9.228;2024-03-02T08:04:49;6.10;1.00
336;DHT22;156;48.738;9.228;2024-03-02T08:07:16;6.00;1.00
336;DHT22;156;48.738;9.228;2024-03-02T08:09:43;6.10;1.00
336;DHT22;156;48.738;9.228;2024-03-02T08:12:11;6.10;1.00
336;DHT22;156;48.738;9.228;2024-03-02T08:14:38;6.10;1.00
336;DHT22;156;48.738;9.228;2024-03-02T08:17:05;6.10;1.00
336;DHT22;156;48.738;9.228;2024-03-02T08:19:36;6.10;1.00
336;DHT22;156;48.738;9.228;2024-03-02T08:22:04;6.10;1.00
336;DHT22;156;48.738;9.228;2024-03-02T08:24:32;6.20;1.00
336;DHT22;156;48.738;9.228;2024-03-02T08:26:59;6.20;1.00
336;DHT22;156;48.738;9.228;2024-03-02T08:29:26;6.10;1.00
336;DHT22;156;48.738;9.228;2024-03-02T08:31:53;6.20;1.00
336;DHT22;156;48.738;9.228;2024-03-02T08:34:20;6.30;1.00
336;DHT22;156;48.738;9.228;2024-03-02T08:36:47;6.30;1.00
336;DHT22;156;48.738;9.228;2024-03-02T08:39:15;6.30;1.00
336;DHT22;156;48.738;9.228;2024-03-02T08:41:44;6.40;1.00
336;DHT22;156;48.738;9.228;2024-03-02T08:44:11;6.50;1.00
336;DHT22;156;48.738;9.228;2024-03-02T08:46:38;6.50;99.90
336;DHT22;156;48.738;9.228;2024-03-02T08:49:06;6.60;99.90
336;DHT22;156;48.738;9.228;2024-03-02T08:51:33;6.60;99.90
336;DHT22;156;48.738;9.228;2024-03-02T08:53:59;6.80;99.90
336;DHT22;156;48.738;9.228;2024-03-02T08:56:28;6.80;99.90
336;DHT22;156;48.738;9.228;2024-03-02T08:58:55;6.80;99.90
336;DHT22;156;48.738;9.228;2024-03-02T09:01:22;6.90;99.90
336;DHT22;156;48.738;9.228;2024-03-02T09:03:49;7.10;99.90
336;DHT22;156;48.738;9.228;2024-03-02T09:06:16;7.10;99.90
336;DHT22;156;48.738;9.228;2024-03-02T09:08:43;7.20;85.60
336;DHT22;156;48.738;9.228;2024-03-02T09:11:10;7.30;16.50
336;DHT22;156;48.738;9.228;2024-03-02T09:13:39;7.40;1.00
336;DHT22;156;48.738;9.228;2024-03-02T09:16:07;7.40;1.00
336;DHT22;156;48.738;9.228;2024-03-02T09:18:36;7.50;1.00
336;DHT22;156;48.738;9.228;2024-03-02T09:21:04;7.60;1.00
336;DHT22;156;48.738;9.228;2024-03-02T09:23:31;7.70;1.00
336;DHT22;156;48.738;9.228;2024-03-02T09:25:58;7.70;1.00
336;DHT22;156;48.738;9.228;2024-03-02T09:28:25;7.90;1.00
336;DHT22;156;48.738;9.228;2024-03-02T09:30:53;8.00;1.00
336;DHT22;156;48.738;9.228;2024-03-02T09:33:20;8.10;1.00
336;DHT22;156;48.738;9.228;2024-03-02T09:35:47;8.10;1.00
336;DHT22;156;48.738;9.228;2024-03-02T09:38:15;8.20;1.00
336;DHT22;156;48.738;9.228;2024-03-02T09:40:42;8.20;1.00
336;DHT22;156;48.738;9.228;2024-03-02T09:43:09;8.40;1.00
336;DHT22;156;48.738;9.228;2024-03-02T09:45:36;8.50;1.00
336;DHT22;156;48.738;9.228;2024-03-02T09:48:05;8.70;1.00
336;DHT22;156;48.738;9.228;2024-03-02T09:50:32;8.70;99.90
336;DHT22;156;48.738;9.228;2024-03-02T09:52:59;8.80;99.90
336;DHT22;156;48.738;9.228;2024-03-02T09:55:26;8.90;99.90
336;DHT22;156;48.738;9.228;2024-03-02T09:57:53;9.00;99.90
336;DHT22;156;48.738;9.228;2024-03-02T10:00:21;9.00;99.90
336;DHT22;156;48.738;9.228;2024-03-02T10:02:48;9.00;99.90
336;DHT22;156;48.738;9.228;2024-03-02T10:05:25;9.10;99.90
336;DHT22;156;48.738;9.228;2024-03-02T10:07:59;9.20;99.90
336;DHT22;156;48.738;9.228;2024-03-02T10:10:35;9.30;99.90
336;DHT22;156;48.738;9.228;2024-03-02T10:13:06;9.50;99.90
336;DHT22;156;48.738;9.228;2024-03-02T10:15:33;9.60;99.90
336;DHT22;156;48.738;9.228;2024-03-02T10:18:00;9.60;99.90
336;DHT22;156;48.738;9.228;2024-03-02T10:20:28;9.70;99.90
336;DHT22;156;48.738;9.228;2024-03-02T10:22:55;9.80;99.90
336;DHT22;156;48.738;9.228;2024-03-02T10:25:30;9.90;99.90
336;DHT22;156;48.738;9.228;2024-03-02T10:27:58;9.90;99.90
336;DHT22;156;48.738;9.228;2024-03-02T10:30:26;10.00;99.90
336;DHT22;156;48.738;9.228;2024-03-02T10:32:53;10.00;99.90
336;DHT22;156;48.738;9.228;2024-03-02T10:35:22;10.20;99.90
336;DHT22;156;48.738;9.228;2024-03-02T10:37:50;10.30;99.90
336;DHT22;156;48.738;9.228;2024-03-02T10:40:18;10.30;68.90
336;DHT22;156;48.738;9.228;2024-03-02T10:42:48;10.30;58.50
336;DHT22;156;48.738;9.228;2024-03-02T10:45:16;10.50;97.20
336;DHT22;156;48.738;9.228;2024-03-02T10:47:45;10.50;71.70
336;DHT22;156;48.738;9.228;2024-03-02T10:50:12;10.60;23.90
336;DHT22;156;48.738;9.228;2024-03-02T10:52:39;10.70;39.50
336;DHT22;156;48.738;9.228;2024-03-02T10:55:08;10.80;20.30
336;DHT22;156;48.738;9.228;2024-03-02T10:57:41;10.90;1.00
336;DHT22;156;48.738;9.228;2024-03-02T11:00:12;11.10;19.60
336;DHT22;156;48.738;9.228;2024-03-02T11:02:46;11.30;5.40
336;DHT22;156;48.738;9.228;2024-03-02T11:05:23;11.50;1.00
336;DHT22;156;48.738;9.228;2024-03-02T11:07:55;11.50;1.00
336;DHT22;156;48.738;9.228;2024-03-02T11:10:24;11.60;1.00
336;DHT22;156;48.738;9.228;2024-03-02T11:12:55;11.70;1.00
336;DHT22;156;48.738;9.228;2024-03-02T11:15:25;11.80;1.00
336;DHT22;156;48.738;9.228;2024-03-02T11:17:52;11.80;1.00
336;DHT22;156;48.738;9.228;2024-03-02T11:20:21;11.90;1.00
336;DHT22;156;48.738;9.228;2024-03-02T11:22:48;12.00;1.00
336;DHT22;156;48.738;9.228;2024-03-02T11:25:26;12.10;1.00
336;DHT22;156;48.738;9.228;2024-03-02T11:28:04;12.20;1.00
336;DHT22;156;48.738;9.228;2024-03-02T11:30:52;12.30;1.00
336;DHT22;156;48.738;9.228;2024-03-02T11:33:26;12.30;1.00
336;DHT22;156;48.738;9.228;2024-03-02T11:35:57;12.40;1.00
336;DHT22;156;48.738;9.228;2024-03-02T11:38:31;12.40;1.00
336;DHT22;156;48.738;9.228;2024-03-02T11:41:01;12.50;1.00
336;DHT22;156;48.738;9.228;2024-03-02T11:43:28;12.60;1.00
336;DHT22;156;48.738;9.228;2024-03-02T11:45:58;12.70;1.00
336;DHT22;156;48.738;9.228;2024-03-02T11:48:26;12.70;1.00
336;DHT22;156;48.738;9.228;2024-03-02T11:50:53;12.80;1.00
336;DHT22;156;48.738;9.228;2024-03-02T11:53:22;12.90;1.00
336;DHT22;156;48.738;9.228;2024-03-02T11:55:49;13.00;99.90
336;DHT22;156;48.738;9.228;2024-03-02T11:58:18;13.20;99.90
336;DHT22;156;48.738;9.228;2024-03-02T12:00:46;13.30;99.90
336;DHT22;156;48.738;9.228;2024-03-02T12:03:14;13.40;99.90
336;DHT22;156;48.738;9.228;2024-03-02T12:05:42;13.50;99.90
336;DHT22;156;48.738;9.228;2024-03-02T12:08:10;13.50;99.90
336;DHT22;156;48.738;9.228;2024-03-02T12:10:37;13.60;99.90
336;DHT22;156;48.738;9.228;2024-03-02T12:13:05;13.70;99.90
336;DHT22;156;48.738;9.228;2024-03-02T12:15:35;13.80;99.90
336;DHT22;156;48.738;9.228;2024-03-02T12:18:02;13.90;99.90
336;DHT22;156;48.738;9.228;2024-03-02T12:20:31;13.90;99.90
336;DHT22;156;48.738;9.228;2024-03-02T12:22:59;14.10;99.90
336;DHT22;156;48.738;9.228;2024-03-02T12:25:26;14.30;99.90
336;DHT22;156;48.738;9.228;2024-03-02T12:27:54;14.50;99.90
336;DHT22;156;48.738;9.228;2024-03-02T12:30:22;14.80;99.90
336;DHT22;156;48.738;9.228;2024-03-02T12:32:50;15.00;99.90
336;DHT22;156;48.738;9.228;2024-03-02T12:35:18;15.50;88.70
336;DHT22;156;48.738;9.228;2024-03-02T12:37:47;16.10;49.20
336;DHT22;156;48.738;9.228;2024-03-02T12:40:16;16.70;6.90
336;DHT22;156;48.738;9.228;2024-03-02T12:42:44;17.00;1.00
336;DHT22;156;48.738;9.228;2024-03-02T12:45:12;17.50;1.00
336;DHT22;156;48.738;9.228;2024-03-02T12:47:40;17.90;1.00
336;DHT22;156;48.738;9.228;2024-03-02T12:50:09;17.90;1.00
336;DHT22;156;48.738;9.228;2024-03-02T12:52:36;18.10;1.00
336;DHT22;156;48.738;9.228;2024-03-02T12:55:05;18.60;1.00
336;DHT22;156;48.738;9.228;2024-03-02T12:57:33;18.80;1.00
336;DHT22;156;48.738;9.228;2024-03-02T13:00:00;18.70;1.00
336;DHT22;156;48.738;9.228;2024-03-02T13:02:31;18.50;1.00
336;DHT22;156;48.738;9.228;2024-03-02T13:04:58;18.50;1.00
336;DHT22;156;48.738;9.228;2024-03-02T13:07:26;18.60;1.00
336;DHT22;156;48.738;9.228;2024-03-02T13:09:55;18.30;1.00
336;DHT22;156;48.738;9.228;2024-03-02T13:12:23;18.10;1.00
336;DHT22;156;48.738;9.228;2024-03-02T13:14:51;18.00;1.00
336;DHT22;156;48.738;9.228;2024-03-02T13:17:19;18.00;1.00
336;DHT22;156;48.738;9.228;2024-03-02T13:19:52;18.20;1.00
336;DHT22;156;48.738;9.228;2024-03-02T13:22:19;18.60;1.00
336;DHT22;156;48.738;9.228;2024-03-02T13:24:48;18.80;1.00
336;DHT22;156;48.738;9.228;2024-03-02T13:27:15;19.30;1.00
336;DHT22;156;48.738;9.228;2024-03-02T13:29:45;19.90;1.00
336;DHT22;156;48.738;9.228;2024-03-02T13:32:11;19.60;1.00
336;DHT22;156;48.738;9.228;2024-03-02T13:34:38;19.80;1.00
336;DHT22;156;48.738;9.228;2024-03-02T13:37:05;20.20;1.00
336;DHT22;156;48.738;9.228;2024-03-02T13:39:32;20.40;1.00
336;DHT22;156;48.738;9.228;2024-03-02T13:42:07;21.00;1.00
336;DHT22;156;48.738;9.228;2024-03-02T13:44:34;21.40;1.00
336;DHT22;156;48.738;9.228;2024-03-02T13:47:01;21.50;1.00
336;DHT22;156;48.738;9.228;2024-03-02T13:49:27;21.70;1.00
336;DHT22;156;48.738;9.228;2024-03-02T13:51:59;22.10;1.00
336;DHT22;156;48.738;9.228;2024-03-02T13:54:28;22.10;1.00
336;DHT22;156;48.738;9.228;2024-03-02T13:56:55;21.50;1.00
336;DHT22;156;48.738;9.228;2024-03-02T13:59:25;21.20;1.00
336;DHT22;156;48.738;9.228;2024-03-02T14:01:52;21.30;1.00
336;DHT22;156;48.738;9.228;2024-03-02T14:04:19;21.60;1.00
336;DHT22;156;48.738;9.228;2024-03-02T14:06:46;21.70;1.00
336;DHT22;156;48.738;9.228;2024-03-02T14:09:13;21.10;1.00
336;DHT22;156;48.738;9.228;2024-03-02T14:11:40;21.70;1.00
336;DHT22;156;48.738;9.228;2024-03-02T14:14:07;22.10;1.00
336;DHT22;156;48.738;9.228;2024-03-02T14:16:35;21.60;1.00
336;DHT22;156;48.738;9.228;2024-03-02T14:19:02;21.10;1.00
336;DHT22;156;48.738;9.228;2024-03-02T14:21:30;20.80;1.00
336;DHT22;156;48.738;9.228;2024-03-02T14:23:57;20.40;1.00
336;DHT22;156;48.738;9.228;2024-03-02T14:26:24;20.30;1.00
336;DHT22;156;48.738;9.228;2024-03-02T14:28:51;20.00;1.00
336;DHT22;156;48.738;9.228;2024-03-02T14:31:18;20.20;1.00
336;DHT22;156;48.738;9.228;2024-03-02T14:33:46;20.30;1.00
336;DHT22;156;48.738;9.228;2024-03-02T14:36:13;20.10;1.00
336;DHT22;156;48.738;9.228;2024-03-02T14:38:40;20.30;1.00
336;DHT22;156;48.738;9.228;2024-03-02T14:41:07;20.20;1.00
336;DHT22;156;48.738;9.228;2024-03-02T14:43:34;20.10;1.00
336;DHT22;156;48.738;9.228;2024-03-02T14:46:03;19.60;1.00
336;DHT22;156;48.738;9.228;2024-03-02T14:48:30;19.20;1.00
336;DHT22;156;48.738;9.228;2024-03-02T14:50:59;19.20;1.00
336;DHT22;156;48.738;9.228;2024-03-02T14:53:26;19.00;1.00
336;DHT22;156;48.738;9.228;2024-03-02T14:55:52;18.90;1.00
336;DHT22;156;48.738;9.228;2024-03-02T14:58:19;18.70;1.00
336;DHT22;156;48.738;9.228;2024-03-02T15:00:46;18.70;1.00
336;DHT22;156;48.738;9.228;2024-03-02T15:03:13;18.20;1.00
336;DHT22;156;48.738;9.228;2024-03-02T15:05:41;18.30;1.00
336;DHT22;156;48.738;9.228;2024-03-02T15:08:10;18.50;1.00
336;DHT22;156;48.738;9.228;2024-03-02T15:10:37;18.60;1.00
336;DHT22;156;48.738;9.228;2024-03-02T15:13:04;19.00;1.00
336;DHT22;156;48.738;9.228;2024-03-02T15:15:34;19.20;1.00
336;DHT22;156;48.738;9.228;2024-03-02T15:18:01;18.80;1.00
336;DHT22;156;48.738;9.228;2024-03-02T15:20:29;18.50;1.00
336;DHT22;156;48.738;9.228;2024-03-02T15:22:56;18.30;1.00
336;DHT22;156;48.738;9.228;2024-03-02T15:25:24;17.90;1.00
336;DHT22;156;48.738;9.228;2024-03-02T15:27:51;17.50;1.00
336;DHT22;156;48.738;9.228;2024-03-02T15:30:18;17.10;1.00
336;DHT22;156;48.738;9.228;2024-03-02T15:32:45;16.60;1.00
336;DHT22;156;48.738;9.228;2024-03-02T15:35:12;16.40;1.00
336;DHT22;156;48.738;9.228;2024-03-02T15:37:39;16.20;1.00
336;DHT22;156;48.738;9.228;2024-03-02T15:40:07;16.10;1.00
336;DHT22;156;48.738;9.228;2024-03-02T15:42:36;15.80;1.00
336;DHT22;156;48.738;9.228;2024-03-02T15:45:03;15.60;1.00
336;DHT22;156;48.738;9.228;2024-03-02T15:47:30;15.30;1.00
336;DHT22;156;48.738;9.228;2024-03-02T15:49:57;15.00;1.00
336;DHT22;156;48.738;9.228;2024-03-02T15:52:24;15.00;1.00
336;DHT22;156;48.738;9.228;2024-03-02T15:54:51;15.00;1.00
336;DHT22;156;48.738;9.228;2024-03-02T15:57:19;14.80;1.00
336;DHT22;156;48.738;9.228;2024-03-02T15:59:48;14.70;1.00
336;DHT22;156;48.738;9.228;2024-03-02T16:02:15;14.60;1.00
336;DHT22;156;48.738;9.228;2024-03-02T16:04:42;14.60;1.00
336;DHT22;156;48.738;9.228;2024-03-02T16:07:09;14.40;1.00
336;DHT22;156;48.738;9.228;2024-03-02T16:09:35;14.40;1.00
336;DHT22;156;48.738;9.228;2024-03-02T16:12:03;14.40;1.00
336;DHT22;156;48.738;9.228;2024-03-02T16:14:30;14.20;1.00
336;DHT22;156;48.738;9.228;2024-03-02T16:16:58;14.10;1.00
336;DHT22;156;48.738;9.228;2024-03-02T16:19:25;13.90;1.00
336;DHT22;156;48.738;9.228;2024-03-02T16:21:52;13.80;1.00
336;DHT22;156;48.738;9.228;2024-03-02T16:24:19;13.80;1.00
336;DHT22;156;48.738;9.228;2024-03-02T16:26:45;13.70;1.00
336;DHT22;156;48.738;9.228;2024-03-02T16:29:12;13.60;1.00
336;DHT22;156;48.738;9.228;2024-03-02T16:31:39;13.50;1.00
336;DHT22;156;48.738;9.228;2024-03-02T16:34:07;13.40;1.00
336;DHT22;156;48.738;9.228;2024-03-02T16:36:35;13.20;1.00
336;DHT22;156;48.738;9.228;2024-03-02T16:39:03;13.10;1.00
336;DHT22;156;48.738;9.228;2024-03-02T16:41:30;13.00;1.00
336;DHT22;156;48.738;9.228;2024-03-02T16:43:58;12.90;1.00
336;DHT22;156;48.738;9.228;2024-03-02T16:46:25;13.00;2.50
336;DHT22;156;48.738;9.228;2024-03-02T16:48:52;12.90;19.60
336;DHT22;156;48.738;9.228;2024-03-02T16:51:22;12.80;39.30
336;DHT22;156;48.738;9.228;2024-03-02T16:53:49;12.80;81.10
336;DHT22;156;48.738;9.228;2024-03-02T16:56:16;12.80;98.30
336;DHT22;156;48.738;9.228;2024-03-02T16:58:43;12.70;99.90
336;DHT22;156;48.738;9.228;2024-03-02T17:01:10;12.70;99.90